createdAt,value
2018-06-25T00:01:58.137Z,8.70
2018-06-25T00:04:27.290Z,8.50
2018-06-25T00:06:56.472Z,8.10
2018-06-25T00:09:25.865Z,8.57
2018-06-25T00:11:54.993Z,8.63
2018-06-25T00:14:24.176Z,8.43
2018-06-25T00:16:53.326Z,9.00
2018-06-25T00:19:22.559Z,7.80
2018-06-25T00:21:51.775Z,7.17
2018-06-25T00:24:20.918Z,8.33
2018-06-25T00:26:50.201Z,8.43
2018-06-25T00:29:19.361Z,7.33
2018-06-25T00:31:48.533Z,7.60
2018-06-25T00:34:17.728Z,8.53
2018-06-25T00:36:46.928Z,8.97
2018-06-25T00:39:16.014Z,8.70
2018-06-25T00:41:45.110Z,8.77
2018-06-25T00:44:14.284Z,8.57
2018-06-25T00:46:43.389Z,8.33
2018-06-25T00:49:12.509Z,8.53
2018-06-25T00:51:41.644Z,9.40
2018-06-25T00:54:10.786Z,9.20
2018-06-25T00:56:39.936Z,8.30
2018-06-25T00:59:26.395Z,9.30
2018-06-25T01:01:55.569Z,9.33
2018-06-25T01:04:24.701Z,9.57
2018-06-25T01:06:53.891Z,10.70
2018-06-25T01:09:23.042Z,13.00
2018-06-25T01:11:52.698Z,14.40
2018-06-25T01:14:21.847Z,17.70
2018-06-25T01:16:51.556Z,16.13
2018-06-25T01:19:20.713Z,16.07
2018-06-25T01:21:49.861Z,14.43
2018-06-25T01:24:19.041Z,12.83
2018-06-25T01:26:48.166Z,14.17
2018-06-25T01:29:17.362Z,15.13
2018-06-25T01:31:46.496Z,14.13
2018-06-25T01:34:15.605Z,14.23
2018-06-25T01:36:44.802Z,16.37
2018-06-25T01:39:13.990Z,16.87
2018-06-25T01:41:43.203Z,24.43
2018-06-25T01:44:12.482Z,18.57
2018-06-25T01:46:41.678Z,18.27
2018-06-25T01:49:10.781Z,18.43
2018-06-25T01:51:40.014Z,17.30
2018-06-25T01:54:09.181Z,17.50
2018-06-25T01:56:38.371Z,17.33
2018-06-25T01:59:07.568Z,18.93
2018-06-25T02:01:37.142Z,20.40
2018-06-25T02:04:06.270Z,19.70
2018-06-25T02:06:35.639Z,21.70
2018-06-25T02:09:08.005Z,21.30
2018-06-25T02:11:37.080Z,21.93
2018-06-25T02:14:06.225Z,23.10
2018-06-25T02:16:35.526Z,22.70
2018-06-25T02:19:04.848Z,22.67
2018-06-25T02:21:33.995Z,23.90
2018-06-25T02:24:03.160Z,22.77
2018-06-25T02:26:32.304Z,24.13
2018-06-25T02:29:01.434Z,25.03
2018-06-25T02:31:30.585Z,22.93
2018-06-25T02:33:59.736Z,24.27
2018-06-25T02:36:28.853Z,25.03
2018-06-25T02:38:58.103Z,24.97
2018-06-25T02:41:27.317Z,27.33
2018-06-25T02:43:56.515Z,24.50
2018-06-25T02:46:25.635Z,25.63
2018-06-25T02:48:54.923Z,22.30
2018-06-25T02:51:24.072Z,23.17
2018-06-25T02:53:53.212Z,24.10
2018-06-25T02:56:22.416Z,23.27
2018-06-25T02:58:51.633Z,23.23
2018-06-25T03:01:20.797Z,23.83
2018-06-25T03:03:50.010Z,24.80
2018-06-25T03:06:19.154Z,24.07
2018-06-25T03:08:48.321Z,25.10
2018-06-25T03:11:17.467Z,24.23
2018-06-25T03:13:46.694Z,23.80
2018-06-25T03:16:15.915Z,25.10
2018-06-25T03:18:45.275Z,23.87
2018-06-25T03:21:14.462Z,24.17
2018-06-25T03:23:43.590Z,22.10
2018-06-25T03:26:12.745Z,22.33
2018-06-25T03:28:42.080Z,22.07
2018-06-25T03:31:11.287Z,22.00
2018-06-25T03:33:40.449Z,22.80
2018-06-25T03:36:09.595Z,23.80
2018-06-25T03:38:38.721Z,21.73
2018-06-25T03:41:07.866Z,21.93
2018-06-25T03:43:37.089Z,22.70
2018-06-25T03:46:06.304Z,22.63
2018-06-25T03:48:35.421Z,23.23
2018-06-25T03:51:04.566Z,21.47
2018-06-25T03:53:33.841Z,23.40
2018-06-25T03:56:03.022Z,20.80
2018-06-25T03:58:32.177Z,24.00
2018-06-25T04:01:01.342Z,22.90
2018-06-25T04:03:30.505Z,23.07
2018-06-25T04:05:59.726Z,23.43
2018-06-25T04:08:28.925Z,23.57
2018-06-25T04:10:58.039Z,22.70
2018-06-25T04:13:27.168Z,22.67
2018-06-25T04:15:56.355Z,22.60
2018-06-25T04:18:25.502Z,21.23
2018-06-25T04:20:54.624Z,21.03
2018-06-25T04:23:23.736Z,20.93
2018-06-25T04:25:52.906Z,21.50
2018-06-25T04:28:22.047Z,21.90
2018-06-25T04:30:51.233Z,20.53
2018-06-25T04:33:20.495Z,20.40
2018-06-25T04:35:49.701Z,21.80
2018-06-25T04:38:18.860Z,20.33
2018-06-25T04:40:48.034Z,21.30
2018-06-25T04:43:17.237Z,21.70
2018-06-25T04:45:47.379Z,21.27
2018-06-25T04:48:16.522Z,21.97
2018-06-25T04:50:45.696Z,21.30
2018-06-25T04:53:14.835Z,21.63
2018-06-25T04:55:44.139Z,18.60
2018-06-25T04:58:13.311Z,20.17
2018-06-25T05:00:42.433Z,20.03
2018-06-25T05:03:11.608Z,19.10
2018-06-25T05:05:40.827Z,19.10
2018-06-25T05:08:10.913Z,15.73
2018-06-25T05:10:40.064Z,16.17
2018-06-25T05:13:09.385Z,13.73
2018-06-25T05:15:38.592Z,13.83
2018-06-25T05:18:07.775Z,14.17
2018-06-25T05:20:37.634Z,13.80
2018-06-25T05:23:07.034Z,14.60
2018-06-25T05:25:36.253Z,15.30
2018-06-25T05:28:05.569Z,15.43
2018-06-25T05:30:34.702Z,15.63
2018-06-25T05:33:03.869Z,14.77
2018-06-25T05:35:33.586Z,14.63
2018-06-25T05:38:02.845Z,16.57
2018-06-25T05:40:35.084Z,16.60
2018-06-25T05:43:04.327Z,19.13
2018-06-25T05:45:35.299Z,18.80
2018-06-25T05:48:04.475Z,16.03
2018-06-25T05:50:33.740Z,15.17
2018-06-25T05:53:02.945Z,14.13
2018-06-25T05:55:32.088Z,13.43
2018-06-25T05:58:01.333Z,14.67
2018-06-25T06:00:30.526Z,13.37
2018-06-25T06:02:59.751Z,15.07
2018-06-25T06:05:28.923Z,12.40
2018-06-25T06:07:58.093Z,11.50
2018-06-25T06:10:27.270Z,13.03
2018-06-25T06:12:56.575Z,14.60
2018-06-25T06:15:25.959Z,11.73
2018-06-25T06:17:55.737Z,11.20
2018-06-25T06:20:25.097Z,10.30
2018-06-25T06:22:54.299Z,11.40
2018-06-25T06:25:23.519Z,11.20
2018-06-25T06:27:52.844Z,10.97
2018-06-25T06:30:22.152Z,9.97
2018-06-25T06:32:51.546Z,10.83
2018-06-25T06:35:20.750Z,10.00
2018-06-25T06:37:50.210Z,11.20
2018-06-25T06:40:19.186Z,20.63
2018-06-25T06:42:48.394Z,10.27
2018-06-25T06:45:17.678Z,33.83
2018-06-25T06:47:47.108Z,11.03
2018-06-25T06:50:16.341Z,12.10
2018-06-25T06:52:45.505Z,11.23
2018-06-25T06:55:15.420Z,11.60
2018-06-25T06:57:44.598Z,11.03
2018-06-25T07:00:13.849Z,10.07
2018-06-25T07:02:43.154Z,10.47
2018-06-25T07:05:12.378Z,10.73
2018-06-25T07:07:41.826Z,10.63
2018-06-25T07:10:11.204Z,10.27
2018-06-25T07:12:40.514Z,12.03
2018-06-25T07:15:09.742Z,11.60
2018-06-25T07:17:39.374Z,11.40
2018-06-25T07:20:08.662Z,11.63
2018-06-25T07:22:37.975Z,11.20
2018-06-25T07:25:07.342Z,12.80
2018-06-25T07:27:36.757Z,11.60
2018-06-25T07:30:07.143Z,13.30
2018-06-25T07:32:36.392Z,12.40
2018-06-25T07:35:05.867Z,14.37
2018-06-25T07:37:35.069Z,14.70
2018-06-25T07:40:04.286Z,15.97
2018-06-25T07:42:33.610Z,13.60
2018-06-25T07:45:02.718Z,14.80
2018-06-25T07:47:31.896Z,13.20
2018-06-25T07:50:01.069Z,14.50
2018-06-25T07:52:30.221Z,13.27
2018-06-25T07:54:59.394Z,15.70
2018-06-25T07:57:28.627Z,13.67
2018-06-25T07:59:57.784Z,13.80
2018-06-25T08:02:26.978Z,15.10
2018-06-25T08:04:56.272Z,13.57
2018-06-25T08:07:25.550Z,16.80
2018-06-25T08:09:54.720Z,14.40
2018-06-25T08:12:24.005Z,14.80
2018-06-25T08:14:53.258Z,13.07
2018-06-25T08:17:22.452Z,11.97
2018-06-25T08:19:51.640Z,11.80
2018-06-25T08:22:20.825Z,12.10
2018-06-25T08:24:49.972Z,11.03
2018-06-25T08:27:19.194Z,11.23
2018-06-25T08:29:48.444Z,11.10
2018-06-25T08:32:17.669Z,10.87
2018-06-25T08:34:46.819Z,9.80
2018-06-25T08:37:16.054Z,9.63
2018-06-25T08:39:45.317Z,10.90
2018-06-25T08:42:14.548Z,10.30
2018-06-25T08:44:43.693Z,9.40
2018-06-25T08:47:12.924Z,8.17
2018-06-25T08:49:42.096Z,8.50
2018-06-25T08:52:11.218Z,7.47
2018-06-25T08:54:40.439Z,7.63
2018-06-25T08:57:09.673Z,8.30
2018-06-25T08:59:38.850Z,9.20
2018-06-25T09:02:08.049Z,8.57
2018-06-25T09:04:37.698Z,9.00
2018-06-25T09:07:06.898Z,7.70
2018-06-25T09:09:36.121Z,7.87
2018-06-25T09:12:05.243Z,7.83
2018-06-25T09:14:34.403Z,7.30
2018-06-25T09:17:03.603Z,7.00
2018-06-25T09:19:32.920Z,6.80
2018-06-25T09:22:02.166Z,7.60
2018-06-25T09:24:31.498Z,6.90
2018-06-25T09:27:00.748Z,9.97
2018-06-25T09:29:30.018Z,8.60
2018-06-25T09:31:59.298Z,7.90
2018-06-25T09:34:33.763Z,7.10
2018-06-25T09:37:03.086Z,7.57
2018-06-25T09:39:32.631Z,6.73
2018-06-25T09:42:01.970Z,8.23
2018-06-25T09:44:31.337Z,8.23
2018-06-25T09:47:00.588Z,7.07
2018-06-25T09:49:29.874Z,8.27
2018-06-25T09:52:00.348Z,7.57
2018-06-25T09:54:29.929Z,6.80
2018-06-25T09:56:59.303Z,6.67
2018-06-25T09:59:28.600Z,6.30
2018-06-25T10:01:57.846Z,7.13
2018-06-25T10:04:27.206Z,6.07
2018-06-25T10:06:56.465Z,5.93
2018-06-25T10:09:25.708Z,5.40
2018-06-25T10:11:54.996Z,4.80
2018-06-25T10:14:24.302Z,5.20
2018-06-25T10:16:54.118Z,4.80
2018-06-25T10:19:23.422Z,5.37
2018-06-25T10:21:52.950Z,6.53
2018-06-25T10:24:22.335Z,4.90
2018-06-25T10:26:51.695Z,5.07
2018-06-25T10:29:20.978Z,6.40
2018-06-25T10:31:50.168Z,6.63
2018-06-25T10:34:19.349Z,6.50
2018-06-25T10:36:48.633Z,5.70
2018-06-25T10:39:17.924Z,4.90
2018-06-25T10:41:47.325Z,4.57
2018-06-25T10:44:17.010Z,4.83
2018-06-25T10:46:46.987Z,4.30
2018-06-25T10:49:16.136Z,4.67
2018-06-25T10:51:45.341Z,4.60
2018-06-25T10:54:14.547Z,4.70
2018-06-25T10:56:48.012Z,4.53
2018-06-25T10:59:17.034Z,4.47
2018-06-25T11:01:46.242Z,4.37
2018-06-25T11:04:15.529Z,3.90
2018-06-25T11:06:44.797Z,4.00
2018-06-25T11:09:14.482Z,5.40
2018-06-25T11:11:44.093Z,4.13
2018-06-25T11:14:13.482Z,4.50
2018-06-25T11:16:42.742Z,4.33
2018-06-25T11:19:11.903Z,4.63
2018-06-25T11:21:41.175Z,4.83
2018-06-25T11:24:10.559Z,4.03
2018-06-25T11:26:39.856Z,3.30
2018-06-25T11:29:09.180Z,4.30
2018-06-25T11:31:38.479Z,4.90
2018-06-25T11:34:07.722Z,4.60
2018-06-25T11:36:36.938Z,4.47
2018-06-25T11:39:10.076Z,3.80
2018-06-25T11:41:41.035Z,4.20
2018-06-25T11:44:10.165Z,4.47
2018-06-25T11:46:39.322Z,3.57
2018-06-25T11:49:08.501Z,4.23
2018-06-25T11:51:37.986Z,3.80
2018-06-25T11:54:07.897Z,4.57
2018-06-25T11:56:37.304Z,4.23
2018-06-25T11:59:06.712Z,5.00
2018-06-25T12:01:36.189Z,4.07
2018-06-25T12:04:05.405Z,3.87
2018-06-25T12:06:34.523Z,3.67
2018-06-25T12:09:04.105Z,4.20
2018-06-25T12:11:33.314Z,3.70
2018-06-25T12:14:02.813Z,4.80
2018-06-25T12:16:31.957Z,4.10
2018-06-25T12:19:01.424Z,3.60
2018-06-25T12:21:30.597Z,3.63
2018-06-25T12:24:00.002Z,3.60
2018-06-25T12:26:29.305Z,4.10
2018-06-25T12:28:58.467Z,3.50
2018-06-25T12:31:27.861Z,3.30
2018-06-25T12:33:57.030Z,3.67
2018-06-25T12:36:26.197Z,3.77
2018-06-25T12:38:55.414Z,3.40
2018-06-25T12:41:24.739Z,4.63
2018-06-25T12:43:53.893Z,3.80
2018-06-25T12:46:41.358Z,3.40
2018-06-25T12:49:10.515Z,3.20
2018-06-25T12:51:39.662Z,2.83
2018-06-25T12:54:08.869Z,3.53
2018-06-25T12:56:38.078Z,3.27
2018-06-25T12:59:07.403Z,5.73
2018-06-25T13:01:36.548Z,3.60
2018-06-25T13:04:05.763Z,3.40
2018-06-25T13:06:35.047Z,3.73
2018-06-25T13:09:06.207Z,2.80
2018-06-25T13:11:35.540Z,2.90
2018-06-25T13:14:04.777Z,2.80
2018-06-25T13:16:34.166Z,2.87
2018-06-25T13:19:03.567Z,2.97
2018-06-25T13:21:32.745Z,3.20
2018-06-25T13:24:02.086Z,3.07
2018-06-25T13:26:31.354Z,3.10
2018-06-25T13:29:00.542Z,3.33
2018-06-25T13:31:29.938Z,2.70
2018-06-25T13:33:59.093Z,3.47
2018-06-25T13:36:28.447Z,3.53
2018-06-25T13:38:57.789Z,2.80
2018-06-25T13:41:27.103Z,3.17
2018-06-25T13:43:56.377Z,2.93
2018-06-25T13:46:25.711Z,3.00
2018-06-25T13:48:55.091Z,3.67
2018-06-25T13:51:24.293Z,3.30
2018-06-25T13:53:53.618Z,3.00
2018-06-25T13:56:22.980Z,2.63
2018-06-25T13:58:52.231Z,3.30
2018-06-25T14:01:21.782Z,2.80
2018-06-25T14:03:51.013Z,3.03
2018-06-25T14:06:20.279Z,2.50
2018-06-25T14:08:49.476Z,3.10
2018-06-25T14:11:18.707Z,2.40
2018-06-25T14:13:48.015Z,3.37
2018-06-25T14:16:17.394Z,3.23
2018-06-25T14:18:46.712Z,3.00
2018-06-25T14:21:15.931Z,2.50
2018-06-25T14:23:50.966Z,3.30
2018-06-25T14:26:20.286Z,3.20
2018-06-25T14:28:49.545Z,3.13
2018-06-25T14:31:22.903Z,3.20
2018-06-25T14:33:57.568Z,3.37
2018-06-25T14:36:27.012Z,3.20
2018-06-25T14:38:56.330Z,2.77
2018-06-25T14:41:25.823Z,3.00
2018-06-25T14:43:55.040Z,3.30
2018-06-25T14:46:24.344Z,2.60
2018-06-25T14:48:53.630Z,3.03
2018-06-25T14:51:23.797Z,2.97
2018-06-25T14:53:53.272Z,2.53
2018-06-25T14:56:22.752Z,3.33
2018-06-25T14:58:51.956Z,2.67
2018-06-25T15:01:21.254Z,3.30
2018-06-25T15:03:50.409Z,2.53
2018-06-25T15:06:19.626Z,2.40
2018-06-25T15:08:48.797Z,3.17
2018-06-25T15:11:18.125Z,4.17
2018-06-25T15:13:47.383Z,3.80
2018-06-25T15:16:16.626Z,4.17
2018-06-25T15:18:45.833Z,6.53
2018-06-25T15:21:14.983Z,3.90
2018-06-25T15:23:44.244Z,3.60
2018-06-25T15:26:13.434Z,5.50
2018-06-25T15:28:42.591Z,4.23
2018-06-25T15:31:11.721Z,4.87
2018-06-25T15:33:40.878Z,6.27
2018-06-25T15:36:10.054Z,6.27
2018-06-25T15:38:39.304Z,6.87
2018-06-25T15:41:08.451Z,6.57
2018-06-25T15:43:37.758Z,6.57
2018-06-25T15:46:07.043Z,5.57
2018-06-25T15:48:36.235Z,6.23
2018-06-25T15:51:05.457Z,5.80
2018-06-25T15:53:34.692Z,6.10
2018-06-25T15:56:03.912Z,5.67
2018-06-25T15:58:33.041Z,5.10
2018-06-25T16:01:02.249Z,5.90
2018-06-25T16:03:31.505Z,5.07
2018-06-25T16:06:00.800Z,5.73
2018-06-25T16:08:30.047Z,6.13
2018-06-25T16:10:59.535Z,5.40
2018-06-25T16:13:28.725Z,6.00
2018-06-25T16:15:57.983Z,6.70
2018-06-25T16:18:27.320Z,5.50
2018-06-25T16:20:56.584Z,5.77
2018-06-25T16:23:25.910Z,5.90
2018-06-25T16:25:55.190Z,6.20
2018-06-25T16:28:24.383Z,6.03
2018-06-25T16:30:53.577Z,5.10
2018-06-25T16:33:22.742Z,5.67
2018-06-25T16:35:52.234Z,4.63
2018-06-25T16:38:21.602Z,4.67
2018-06-25T16:40:50.857Z,5.17
2018-06-25T16:43:20.469Z,3.70
2018-06-25T16:45:49.693Z,4.57
2018-06-25T16:48:18.871Z,4.03
2018-06-25T16:50:48.138Z,3.70
2018-06-25T16:53:17.308Z,4.07
2018-06-25T16:55:46.683Z,4.37
2018-06-25T16:58:15.930Z,4.00
2018-06-25T17:00:45.108Z,4.33
2018-06-25T17:03:14.459Z,3.23
2018-06-25T17:05:43.790Z,3.87
2018-06-25T17:08:13.016Z,3.93
2018-06-25T17:10:42.358Z,5.50
2018-06-25T17:13:11.465Z,5.00
2018-06-25T17:15:40.702Z,3.90
2018-06-25T17:18:09.898Z,3.40
2018-06-25T17:20:39.165Z,4.07
2018-06-25T17:23:08.502Z,3.70
2018-06-25T17:25:37.775Z,4.63
2018-06-25T17:28:07.041Z,8.30
2018-06-25T17:30:36.218Z,5.10
2018-06-25T17:33:05.982Z,3.60
2018-06-25T17:35:35.193Z,5.23
2018-06-25T17:38:04.414Z,7.70
2018-06-25T17:40:33.353Z,5.27
2018-06-25T17:43:02.479Z,5.20
2018-06-25T17:45:31.624Z,3.83
2018-06-25T17:48:00.845Z,4.50
2018-06-25T17:50:30.071Z,4.03
2018-06-25T17:52:59.258Z,4.67
2018-06-25T17:55:28.426Z,4.00
2018-06-25T17:57:57.858Z,3.90
2018-06-25T18:00:27.028Z,3.90
2018-06-25T18:02:56.223Z,4.63
2018-06-25T18:05:25.399Z,4.63
2018-06-25T18:07:54.542Z,4.40
2018-06-25T18:10:23.676Z,5.10
2018-06-25T18:12:52.826Z,5.23
2018-06-25T18:15:21.993Z,5.70
2018-06-25T18:17:51.137Z,5.53
2018-06-25T18:20:20.282Z,4.93
2018-06-25T18:22:49.413Z,6.00
2018-06-25T18:25:18.561Z,5.20
2018-06-25T18:27:47.686Z,6.90
2018-06-25T18:30:16.840Z,5.73
2018-06-25T18:32:45.997Z,6.40
2018-06-25T18:35:15.190Z,8.27
2018-06-25T18:37:44.350Z,6.93
2018-06-25T18:40:13.469Z,6.23
2018-06-25T18:42:44.659Z,7.07
2018-06-25T18:45:13.870Z,6.67
2018-06-25T18:47:42.999Z,6.90
2018-06-25T18:50:12.152Z,6.40
2018-06-25T18:52:41.320Z,7.27
2018-06-25T18:55:10.515Z,7.77
2018-06-25T18:57:39.616Z,7.23
2018-06-25T19:00:10.236Z,7.37
2018-06-25T19:02:39.472Z,7.23
2018-06-25T19:05:08.933Z,8.17
2018-06-25T19:07:38.109Z,7.90
2018-06-25T19:10:07.241Z,8.80
2018-06-25T19:12:36.368Z,7.87
2018-06-25T19:15:06.168Z,8.47
2018-06-25T19:17:35.330Z,6.93
2018-06-25T19:20:04.977Z,8.70
2018-06-25T19:22:34.154Z,8.17
2018-06-25T19:25:03.446Z,7.50
2018-06-25T19:27:32.571Z,8.27
2018-06-25T19:30:01.816Z,8.20
2018-06-25T19:32:31.275Z,7.27
2018-06-25T19:35:00.441Z,7.80
2018-06-25T19:37:29.606Z,8.37
2018-06-25T19:39:58.556Z,8.90
2018-06-25T19:42:27.757Z,8.80
2018-06-25T19:44:56.917Z,9.20
2018-06-25T19:47:26.134Z,8.90
2018-06-25T19:49:55.408Z,8.70
2018-06-25T19:52:24.589Z,9.97
2018-06-25T19:54:53.724Z,9.10
2018-06-25T19:57:22.926Z,11.00
2018-06-25T19:59:52.091Z,11.80
2018-06-25T20:02:21.536Z,11.20
2018-06-25T20:04:50.819Z,10.53
2018-06-25T20:07:20.067Z,11.57
2018-06-25T20:09:49.484Z,11.67
2018-06-25T20:12:18.959Z,10.67
2018-06-25T20:14:48.435Z,11.70
2018-06-25T20:17:17.714Z,11.27
2018-06-25T20:19:46.950Z,12.50
2018-06-25T20:22:16.250Z,12.60
2018-06-25T20:24:45.706Z,10.67
2018-06-25T20:27:15.147Z,23.67
2018-06-25T20:29:44.343Z,22.10
2018-06-25T20:32:13.607Z,14.60
2018-06-25T20:34:42.874Z,12.90
2018-06-25T20:37:12.152Z,13.90
2018-06-25T20:39:41.487Z,13.27
2018-06-25T20:42:10.687Z,13.07
2018-06-25T20:44:39.879Z,14.33
2018-06-25T20:47:09.068Z,13.23
2018-06-25T20:49:38.248Z,13.07
2018-06-25T20:52:07.529Z,13.63
2018-06-25T20:54:36.780Z,13.93
2018-06-25T20:57:06.042Z,16.50
2018-06-25T20:59:35.219Z,14.63
2018-06-25T21:02:04.479Z,15.43
2018-06-25T21:04:34.349Z,14.13
2018-06-25T21:07:03.563Z,15.27
2018-06-25T21:09:32.752Z,12.80
2018-06-25T21:12:01.934Z,16.53
2018-06-25T21:14:31.045Z,27.03
2018-06-25T21:17:00.207Z,15.10
2018-06-25T21:19:30.173Z,14.87
2018-06-25T21:21:59.325Z,15.20
2018-06-25T21:24:28.531Z,13.53
2018-06-25T21:26:57.719Z,14.60
2018-06-25T21:29:26.943Z,15.57
2018-06-25T21:31:56.123Z,14.27
2018-06-25T21:34:25.272Z,13.80
2018-06-25T21:36:54.746Z,15.87
2018-06-25T21:39:23.949Z,14.40
2018-06-25T21:41:53.119Z,15.13
2018-06-25T21:44:22.340Z,15.47
2018-06-25T21:46:51.656Z,16.10
2018-06-25T21:49:20.785Z,15.37
2018-06-25T21:51:49.941Z,14.60
2018-06-25T21:54:19.068Z,16.43
2018-06-25T21:56:48.216Z,14.60
2018-06-25T21:59:17.481Z,15.03
2018-06-25T22:01:52.875Z,14.30
2018-06-25T22:04:22.596Z,14.43
2018-06-25T22:06:52.031Z,24.47
2018-06-25T22:09:22.717Z,19.37
2018-06-25T22:11:53.731Z,16.80
2018-06-25T22:14:25.518Z,15.90
2018-06-25T22:16:55.767Z,16.10
2018-06-25T22:19:26.400Z,15.17
2018-06-25T22:21:55.720Z,15.27
2018-06-25T22:24:26.188Z,15.50
2018-06-25T22:26:57.451Z,13.43
2018-06-25T22:29:29.209Z,15.90
2018-06-25T22:32:02.996Z,14.50
2018-06-25T22:34:32.242Z,15.40
2018-06-25T22:37:03.632Z,13.43
2018-06-25T22:39:33.656Z,14.60
2018-06-25T22:42:04.124Z,15.60
2018-06-25T22:44:34.536Z,14.97
2018-06-25T22:47:06.832Z,15.67
2018-06-25T22:49:38.416Z,15.80
2018-06-25T22:52:08.472Z,16.13
2018-06-25T22:54:41.561Z,15.93
2018-06-25T22:57:10.866Z,15.23
2018-06-25T22:59:41.121Z,14.20
2018-06-25T23:02:10.851Z,15.00
2018-06-25T23:04:42.481Z,16.33
2018-06-25T23:07:13.443Z,14.97
2018-06-25T23:09:43.740Z,14.53
2018-06-25T23:12:13.664Z,18.47
2018-06-25T23:14:44.489Z,16.10
2018-06-25T23:17:16.064Z,15.03
2018-06-25T23:19:45.251Z,14.10
2018-06-25T23:22:16.034Z,15.73
2018-06-25T23:24:45.697Z,14.10
2018-06-25T23:27:15.452Z,13.90
2018-06-25T23:29:46.381Z,14.13
2018-06-25T23:32:17.857Z,13.60
2018-06-25T23:34:48.942Z,12.90
2018-06-25T23:37:18.537Z,13.17
2018-06-25T23:39:50.909Z,13.00
2018-06-25T23:42:20.106Z,13.90
2018-06-25T23:44:51.932Z,12.47
2018-06-25T23:47:23.047Z,13.37
2018-06-25T23:49:54.916Z,13.23
2018-06-25T23:52:24.747Z,12.50
2018-06-25T23:54:56.417Z,12.33
2018-06-25T23:57:28.320Z,11.80
2018-06-25T23:59:58.394Z,13.00
